MSC Kleven — CQHU — position and weather

sailwx.info

Track history (hours):
 
Tides and Currents Weather Stations Pressure Air Temp Water Temp Dewpoint Dewpoint Depression Visibility Wind Speed Wind Dir Waves Ship Positions

MSC Kleven

Last reported at 2017-Dec-11 16:58 UTC. Time now 2017-Dec-12 17:50 UTC.
Position N 51°18' E 004°16'.

Length 318 m; draft 10.6 m.

Type: Ship (hazmat cat A). MMSI: 255805596.

Date/timePositionNaut miles runAvg speedWind from/ knotsBaromVisibWave heightAir tempDewpointWater temp
2017-Dec-11 16:58N 51°18' E 004°16'0 0.0
2017-Dec-11 16:28N 51°18' E 004°16'0 0.0
2017-Dec-11 15:58N 51°18' E 004°16'0 0.0
2017-Dec-11 15:28N 51°18' E 004°16'0 0.0
2017-Dec-11 14:58N 51°18' E 004°16'0 0.0
2017-Dec-11 14:28N 51°18' E 004°16'0 0.0
2017-Dec-11 13:58N 51°18' E 004°16'0 0.0
2017-Dec-11 13:25N 51°18' E 004°16'0 0.0
2017-Dec-11 12:58N 51°18' E 004°16'0 0.0
2017-Dec-11 12:28N 51°18' E 004°16'0 0.0
2017-Dec-11 11:58N 51°18' E 004°16'0 0.0
2017-Dec-11 11:25N 51°18' E 004°16'0 0.0
2017-Dec-11 10:58N 51°18' E 004°16'0 0.0
2017-Dec-11 10:28N 51°18' E 004°16'0 0.0
2017-Dec-11 09:46N 51°18' E 004°16'0 0.0
2017-Dec-11 09:28N 51°18' E 004°16'0 0.0
2017-Dec-11 08:58N 51°18' E 004°16'0 0.0
2017-Dec-11 08:28N 51°18' E 004°16'0 0.0
2017-Dec-11 07:58N 51°18' E 004°16'0 0.0
2017-Dec-11 07:28N 51°18' E 004°16'0 0.0
2017-Dec-11 06:58N 51°18' E 004°16'0 0.0
2017-Dec-11 06:28N 51°18' E 004°16'0 0.0
2017-Dec-11 05:58N 51°18' E 004°16'0 0.0
2017-Dec-11 05:28N 51°18' E 004°16'0 0.0
2017-Dec-11 04:55N 51°18' E 004°16'0 0.0
2017-Dec-11 04:25N 51°18' E 004°16'0 0.0
2017-Dec-11 03:58N 51°18' E 004°16'0 0.0
2017-Dec-11 03:28N 51°18' E 004°16'0 0.0
2017-Dec-11 02:58N 51°18' E 004°16'0 0.0
2017-Dec-11 02:28N 51°18' E 004°16'0 0.0
2017-Dec-11 01:49N 51°18' E 004°16'0 0.0
2017-Dec-11 01:28N 51°18' E 004°16'0 0.0
2017-Dec-11 00:58N 51°18' E 004°16'0 0.0
2017-Dec-11 00:28N 51°18' E 004°16'0 0.0
2017-Dec-10 23:58N 51°18' E 004°16'0 0.0
2017-Dec-10 23:28N 51°18' E 004°16'0 0.0
2017-Dec-10 22:58N 51°18' E 004°16'0 0.0
2017-Dec-10 22:28N 51°18' E 004°16'0 0.0
2017-Dec-10 21:58N 51°18' E 004°16'0 0.0
2017-Dec-10 21:28N 51°18' E 004°16'0 0.0
2017-Dec-10 20:58N 51°18' E 004°16'0 0.0
2017-Dec-10 20:28N 51°18' E 004°16'0 0.0
2017-Dec-10 19:58N 51°18' E 004°16'0 0.0
2017-Dec-10 19:28N 51°18' E 004°16'0 0.0
2017-Dec-10 18:58N 51°18' E 004°16'0 0.0
2017-Dec-10 18:25N 51°18' E 004°16'0 0.0
2017-Dec-10 17:58N 51°18' E 004°16'0 0.0
2017-Dec-10 17:28N 51°18' E 004°16'0 0.0
2017-Dec-10 17:01N 51°18' E 004°16'0 0.0
2017-Dec-10 16:31N 51°18' E 004°16'1 1.4
2017-Dec-10 16:00N 51°18' E 004°16'3 6.1
2017-Dec-10 15:30N 51°21' E 004°15'4 7.8
2017-Dec-10 15:01N 51°23' E 004°09'713.1
2017-Dec-10 14:30N 51°26' E 004°00'816.1
2017-Dec-10 14:00N 51°21' E 003°51'713.9
2017-Dec-10 13:31N 51°25' E 003°42'611.5
2017-Dec-10 13:01N 51°25' E 003°33'714.7
2017-Dec-10 12:30N 51°24' E 003°21'816.1
2017-Dec-10 12:00N 51°24' E 003°08'817.0
2017-Dec-10 11:30N 51°25' E 002°55'714.2
2017-Dec-10 10:59N 51°23' E 002°43'6 9.5
2017-Dec-10 10:23N 51°22' E 002°34'410.4
2017-Dec-10 10:01N 51°22' E 002°28'4 8.3
2017-Dec-10 09:30N 51°20' E 002°22'4 8.5
2017-Dec-10 09:00N 51°17' E 002°17'4 8.6
2017-Dec-10 08:31N 51°15' E 002°11'4 8.8
2017-Dec-10 08:01N 51°13' E 002°05'5 9.4
2017-Dec-10 07:31N 51°10' E 001°58'5 9.2
2017-Dec-10 07:00N 51°08' E 001°52'4 8.4
2017-Dec-10 06:30N 51°05' E 001°47'4 8.9
2017-Dec-10 06:00N 51°02' E 001°42'5 9.3
2017-Dec-10 05:30N 50°59' E 001°37'5 9.8
2017-Dec-10 05:00N 50°55' E 001°31'5 9.6
2017-Dec-10 04:30N 50°51' E 001°28'18 9.4
2017-Dec-10 02:36N 50°37' E 001°11'4 9.7
2017-Dec-10 02:14N 50°34' E 001°07'11 9.7
2017-Dec-10 01:05N 50°28' E 000°53'3 9.8
2017-Dec-10 00:48N 50°27' E 000°48'4 9.7
2017-Dec-10 00:21N 50°26' E 000°42'7 9.8
2017-Dec-09 23:41N 50°24' E 000°32'4 9.7
2017-Dec-09 23:17N 50°23' E 000°26'3 9.8
2017-Dec-09 23:00N 50°23' E 000°22'510.2
2017-Dec-09 22:30N 50°21' E 000°14'510.0
2017-Dec-09 22:00N 50°20' E 000°06'5 9.9
2017-Dec-09 21:30N 50°19' W 000°01'5 9.8
2017-Dec-09 20:58N 50°18' W 000°09'510.0
2017-Dec-09 20:31N 50°17' W 000°16'8711.2
2017-Dec-09 12:41N 49°55' W 002°28'714.3
2017-Dec-09 12:11N 49°53' W 002°39'314.4
2017-Dec-09 11:59N 49°52' W 002°43'714.5
2017-Dec-09 11:30N 49°51' W 002°53'914.2
2017-Dec-09 10:54N 49°49' W 003°07'614.3
2017-Dec-09 10:30N 49°49' W 003°15'714.4
2017-Dec-09 10:00N 49°48' W 003°26'714.2
2017-Dec-09 09:30N 49°48' W 003°37'714.4
2017-Dec-09 09:00N 49°47' W 003°48'1314.7
2017-Dec-09 08:08N 49°46' W 004°08'614.9
2017-Dec-09 07:45N 49°45' W 004°17'415.0
2017-Dec-09 07:30N 49°45' W 004°22'  
Track history (hours):
 
Tides and Currents Weather Stations Pressure Air Temp Water Temp Dewpoint Dewpoint Depression Visibility Wind Speed Wind Dir Waves Ship Positions

MSC Kleven

Last reported at 2017-Dec-11 16:58 UTC. Time now 2017-Dec-12 17:50 UTC.
Position N 51°18' E 004°16'.

Length 318 m; draft 10.6 m.

Type: Ship (hazmat cat A). MMSI: 255805596.

Date/timePositionNaut miles runAvg speedWind from/ knotsBaromVisibWave heightAir tempDewpointWater temp
2017-Dec-11 16:58N 51°18' E 004°16'0 0.0
2017-Dec-11 16:28N 51°18' E 004°16'0 0.0
2017-Dec-11 15:58N 51°18' E 004°16'0 0.0
2017-Dec-11 15:28N 51°18' E 004°16'0 0.0
2017-Dec-11 14:58N 51°18' E 004°16'0 0.0
2017-Dec-11 14:28N 51°18' E 004°16'0 0.0
2017-Dec-11 13:58N 51°18' E 004°16'0 0.0
2017-Dec-11 13:25N 51°18' E 004°16'0 0.0
2017-Dec-11 12:58N 51°18' E 004°16'0 0.0
2017-Dec-11 12:28N 51°18' E 004°16'0 0.0
2017-Dec-11 11:58N 51°18' E 004°16'0 0.0
2017-Dec-11 11:25N 51°18' E 004°16'0 0.0
2017-Dec-11 10:58N 51°18' E 004°16'0 0.0
2017-Dec-11 10:28N 51°18' E 004°16'0 0.0
2017-Dec-11 09:46N 51°18' E 004°16'0 0.0
2017-Dec-11 09:28N 51°18' E 004°16'0 0.0
2017-Dec-11 08:58N 51°18' E 004°16'0 0.0
2017-Dec-11 08:28N 51°18' E 004°16'0 0.0
2017-Dec-11 07:58N 51°18' E 004°16'0 0.0
2017-Dec-11 07:28N 51°18' E 004°16'0 0.0
2017-Dec-11 06:58N 51°18' E 004°16'0 0.0
2017-Dec-11 06:28N 51°18' E 004°16'0 0.0
2017-Dec-11 05:58N 51°18' E 004°16'0 0.0
2017-Dec-11 05:28N 51°18' E 004°16'0 0.0
2017-Dec-11 04:55N 51°18' E 004°16'0 0.0
2017-Dec-11 04:25N 51°18' E 004°16'0 0.0
2017-Dec-11 03:58N 51°18' E 004°16'0 0.0
2017-Dec-11 03:28N 51°18' E 004°16'0 0.0
2017-Dec-11 02:58N 51°18' E 004°16'0 0.0
2017-Dec-11 02:28N 51°18' E 004°16'0 0.0
2017-Dec-11 01:49N 51°18' E 004°16'0 0.0
2017-Dec-11 01:28N 51°18' E 004°16'0 0.0
2017-Dec-11 00:58N 51°18' E 004°16'0 0.0
2017-Dec-11 00:28N 51°18' E 004°16'0 0.0
2017-Dec-10 23:58N 51°18' E 004°16'0 0.0
2017-Dec-10 23:28N 51°18' E 004°16'0 0.0
2017-Dec-10 22:58N 51°18' E 004°16'0 0.0
2017-Dec-10 22:28N 51°18' E 004°16'0 0.0
2017-Dec-10 21:58N 51°18' E 004°16'0 0.0
2017-Dec-10 21:28N 51°18' E 004°16'0 0.0
2017-Dec-10 20:58N 51°18' E 004°16'0 0.0
2017-Dec-10 20:28N 51°18' E 004°16'0 0.0
2017-Dec-10 19:58N 51°18' E 004°16'0 0.0
2017-Dec-10 19:28N 51°18' E 004°16'0 0.0
2017-Dec-10 18:58N 51°18' E 004°16'0 0.0
2017-Dec-10 18:25N 51°18' E 004°16'0 0.0
2017-Dec-10 17:58N 51°18' E 004°16'0 0.0
2017-Dec-10 17:28N 51°18' E 004°16'0 0.0
2017-Dec-10 17:01N 51°18' E 004°16'0 0.0
2017-Dec-10 16:31N 51°18' E 004°16'1 1.4
2017-Dec-10 16:00N 51°18' E 004°16'3 6.1
2017-Dec-10 15:30N 51°21' E 004°15'4 7.8
2017-Dec-10 15:01N 51°23' E 004°09'713.1
2017-Dec-10 14:30N 51°26' E 004°00'816.1
2017-Dec-10 14:00N 51°21' E 003°51'713.9
2017-Dec-10 13:31N 51°25' E 003°42'611.5
2017-Dec-10 13:01N 51°25' E 003°33'714.7
2017-Dec-10 12:30N 51°24' E 003°21'816.1
2017-Dec-10 12:00N 51°24' E 003°08'817.0
2017-Dec-10 11:30N 51°25' E 002°55'714.2
2017-Dec-10 10:59N 51°23' E 002°43'6 9.5
2017-Dec-10 10:23N 51°22' E 002°34'410.4
2017-Dec-10 10:01N 51°22' E 002°28'4 8.3
2017-Dec-10 09:30N 51°20' E 002°22'4 8.5
2017-Dec-10 09:00N 51°17' E 002°17'4 8.6
2017-Dec-10 08:31N 51°15' E 002°11'4 8.8
2017-Dec-10 08:01N 51°13' E 002°05'5 9.4
2017-Dec-10 07:31N 51°10' E 001°58'5 9.2
2017-Dec-10 07:00N 51°08' E 001°52'4 8.4
2017-Dec-10 06:30N 51°05' E 001°47'4 8.9
2017-Dec-10 06:00N 51°02' E 001°42'5 9.3
2017-Dec-10 05:30N 50°59' E 001°37'5 9.8
2017-Dec-10 05:00N 50°55' E 001°31'5 9.6
2017-Dec-10 04:30N 50°51' E 001°28'18 9.4
2017-Dec-10 02:36N 50°37' E 001°11'4 9.7
2017-Dec-10 02:14N 50°34' E 001°07'11 9.7
2017-Dec-10 01:05N 50°28' E 000°53'3 9.8
2017-Dec-10 00:48N 50°27' E 000°48'4 9.7
2017-Dec-10 00:21N 50°26' E 000°42'7 9.8
2017-Dec-09 23:41N 50°24' E 000°32'4 9.7
2017-Dec-09 23:17N 50°23' E 000°26'3 9.8
2017-Dec-09 23:00N 50°23' E 000°22'510.2
2017-Dec-09 22:30N 50°21' E 000°14'510.0
2017-Dec-09 22:00N 50°20' E 000°06'5 9.9
2017-Dec-09 21:30N 50°19' W 000°01'5 9.8
2017-Dec-09 20:58N 50°18' W 000°09'510.0
2017-Dec-09 20:31N 50°17' W 000°16'8711.2
2017-Dec-09 12:41N 49°55' W 002°28'714.3
2017-Dec-09 12:11N 49°53' W 002°39'314.4
2017-Dec-09 11:59N 49°52' W 002°43'714.5
2017-Dec-09 11:30N 49°51' W 002°53'914.2
2017-Dec-09 10:54N 49°49' W 003°07'614.3
2017-Dec-09 10:30N 49°49' W 003°15'714.4
2017-Dec-09 10:00N 49°48' W 003°26'714.2
2017-Dec-09 09:30N 49°48' W 003°37'714.4
2017-Dec-09 09:00N 49°47' W 003°48'1314.7
2017-Dec-09 08:08N 49°46' W 004°08'614.9
2017-Dec-09 07:45N 49°45' W 004°17'415.0
2017-Dec-09 07:30N 49°45' W 004°22'  

Dump ship's entire track history